sensor_id;sensor_type;location;lat;lon;timestamp;P1;durP1;ratioP1;P2;durP2;ratioP2
27566;SDS011;15006;48.584;9.186;2023-08-31T00:00:48;1.90;;;1.80;;
27566;SDS011;15006;48.584;9.186;2023-08-31T00:03:16;2.17;;;1.98;;
27566;SDS011;15006;48.584;9.186;2023-08-31T00:05:42;2.22;;;1.80;;
27566;SDS011;15006;48.584;9.186;2023-08-31T00:08:09;2.33;;;2.22;;
27566;SDS011;15006;48.584;9.186;2023-08-31T00:10:37;3.03;;;2.13;;
27566;SDS011;15006;48.584;9.186;2023-08-31T00:13:03;2.35;;;2.20;;
27566;SDS011;15006;48.584;9.186;2023-08-31T00:15:31;2.45;;;2.25;;
27566;SDS011;15006;48.584;9.186;2023-08-31T00:18:00;2.22;;;2.08;;
27566;SDS011;15006;48.584;9.186;2023-08-31T00:20:32;2.42;;;2.22;;
27566;SDS011;15006;48.584;9.186;2023-08-31T00:22:59;2.47;;;2.33;;
27566;SDS011;15006;48.584;9.186;2023-08-31T00:25:27;2.60;;;2.40;;
27566;SDS011;15006;48.584;9.186;2023-08-31T00:27:55;3.10;;;2.30;;
27566;SDS011;15006;48.584;9.186;2023-08-31T00:30:22;2.50;;;2.30;;
27566;SDS011;15006;48.584;9.186;2023-08-31T00:32:55;2.78;;;2.50;;
27566;SDS011;15006;48.584;9.186;2023-08-31T00:35:25;5.43;;;2.60;;
27566;SDS011;15006;48.584;9.186;2023-08-31T00:37:52;2.60;;;2.40;;
27566;SDS011;15006;48.584;9.186;2023-08-31T00:40:26;2.47;;;2.38;;
27566;SDS011;15006;48.584;9.186;2023-08-31T00:42:53;2.17;;;2.08;;
27566;SDS011;15006;48.584;9.186;2023-08-31T00:45:19;2.78;;;2.58;;
27566;SDS011;15006;48.584;9.186;2023-08-31T00:47:46;2.75;;;2.55;;
27566;SDS011;15006;48.584;9.186;2023-08-31T00:50:14;2.13;;;2.03;;
27566;SDS011;15006;48.584;9.186;2023-08-31T00:52:41;1.90;;;1.80;;
27566;SDS011;15006;48.584;9.186;2023-08-31T00:55:10;2.55;;;2.45;;
27566;SDS011;15006;48.584;9.186;2023-08-31T00:57:36;2.33;;;2.13;;
27566;SDS011;15006;48.584;9.186;2023-08-31T01:00:03;2.22;;;1.92;;
27566;SDS011;15006;48.584;9.186;2023-08-31T01:02:34;2.27;;;2.17;;
27566;SDS011;15006;48.584;9.186;2023-08-31T01:05:29;4.72;;;2.35;;
27566;SDS011;15006;48.584;9.186;2023-08-31T01:08:26;3.00;;;2.55;;
27566;SDS011;15006;48.584;9.186;2023-08-31T01:14:39;3.10;;;2.42;;
27566;SDS011;15006;48.584;9.186;2023-08-31T01:17:24;2.28;;;2.10;;
27566;SDS011;15006;48.584;9.186;2023-08-31T01:19:54;2.40;;;2.30;;
27566;SDS011;15006;48.584;9.186;2023-08-31T01:22:38;4.35;;;2.50;;
27566;SDS011;15006;48.584;9.186;2023-08-31T01:25:20;2.35;;;2.15;;
27566;SDS011;15006;48.584;9.186;2023-08-31T01:27:47;2.22;;;2.13;;
27566;SDS011;15006;48.584;9.186;2023-08-31T01:30:13;2.25;;;2.13;;
27566;SDS011;15006;48.584;9.186;2023-08-31T01:32:43;2.40;;;2.20;;
27566;SDS011;15006;48.584;9.186;2023-08-31T01:35:13;4.30;;;2.22;;
27566;SDS011;15006;48.584;9.186;2023-08-31T01:37:52;2.25;;;2.08;;
27566;SDS011;15006;48.584;9.186;2023-08-31T01:43:06;2.42;;;2.22;;
27566;SDS011;15006;48.584;9.186;2023-08-31T01:45:33;2.50;;;2.30;;
27566;SDS011;15006;48.584;9.186;2023-08-31T01:48:01;2.30;;;2.20;;
27566;SDS011;15006;48.584;9.186;2023-08-31T01:50:27;2.20;;;2.10;;
27566;SDS011;15006;48.584;9.186;2023-08-31T01:52:53;2.55;;;2.30;;
27566;SDS011;15006;48.584;9.186;2023-08-31T01:55:19;2.38;;;2.20;;
27566;SDS011;15006;48.584;9.186;2023-08-31T01:57:46;2.40;;;2.20;;
27566;SDS011;15006;48.584;9.186;2023-08-31T02:00:13;3.00;;;2.45;;
27566;SDS011;15006;48.584;9.186;2023-08-31T02:02:41;2.20;;;2.10;;
27566;SDS011;15006;48.584;9.186;2023-08-31T02:05:07;2.42;;;2.10;;
27566;SDS011;15006;48.584;9.186;2023-08-31T02:07:34;2.30;;;2.10;;
27566;SDS011;15006;48.584;9.186;2023-08-31T02:10:00;2.05;;;1.95;;
27566;SDS011;15006;48.584;9.186;2023-08-31T02:12:26;2.03;;;1.92;;
27566;SDS011;15006;48.584;9.186;2023-08-31T02:14:52;3.88;;;2.55;;
27566;SDS011;15006;48.584;9.186;2023-08-31T02:17:18;2.42;;;2.33;;
27566;SDS011;15006;48.584;9.186;2023-08-31T02:19:44;2.95;;;2.33;;
27566;SDS011;15006;48.584;9.186;2023-08-31T02:22:10;2.70;;;2.50;;
27566;SDS011;15006;48.584;9.186;2023-08-31T02:24:36;2.30;;;2.20;;
27566;SDS011;15006;48.584;9.186;2023-08-31T02:27:02;2.72;;;2.53;;
27566;SDS011;15006;48.584;9.186;2023-08-31T02:29:28;2.80;;;2.60;;
27566;SDS011;15006;48.584;9.186;2023-08-31T02:31:54;2.20;;;2.10;;
27566;SDS011;15006;48.584;9.186;2023-08-31T02:34:21;2.78;;;2.55;;
27566;SDS011;15006;48.584;9.186;2023-08-31T02:36:47;2.35;;;2.25;;
27566;SDS011;15006;48.584;9.186;2023-08-31T02:39:13;6.03;;;2.72;;
27566;SDS011;15006;48.584;9.186;2023-08-31T02:41:39;2.00;;;1.90;;
27566;SDS011;15006;48.584;9.186;2023-08-31T02:44:05;4.15;;;2.10;;
27566;SDS011;15006;48.584;9.186;2023-08-31T02:46:31;2.38;;;2.17;;
27566;SDS011;15006;48.584;9.186;2023-08-31T02:48:57;2.80;;;2.60;;
27566;SDS011;15006;48.584;9.186;2023-08-31T02:51:23;2.60;;;2.40;;
27566;SDS011;15006;48.584;9.186;2023-08-31T02:53:49;2.33;;;2.20;;
27566;SDS011;15006;48.584;9.186;2023-08-31T02:56:15;2.75;;;2.55;;
27566;SDS011;15006;48.584;9.186;2023-08-31T02:58:41;3.50;;;2.63;;
27566;SDS011;15006;48.584;9.186;2023-08-31T03:01:10;2.60;;;2.50;;
27566;SDS011;15006;48.584;9.186;2023-08-31T03:03:38;2.50;;;2.40;;
27566;SDS011;15006;48.584;9.186;2023-08-31T03:06:08;2.00;;;1.90;;
27566;SDS011;15006;48.584;9.186;2023-08-31T03:08:35;2.30;;;2.20;;
27566;SDS011;15006;48.584;9.186;2023-08-31T03:11:02;2.15;;;2.05;;
27566;SDS011;15006;48.584;9.186;2023-08-31T03:13:30;7.80;;;2.30;;
27566;SDS011;15006;48.584;9.186;2023-08-31T03:15:57;4.93;;;2.22;;
27566;SDS011;15006;48.584;9.186;2023-08-31T03:18:23;3.58;;;2.33;;
27566;SDS011;15006;48.584;9.186;2023-08-31T03:20:49;2.83;;;2.63;;
27566;SDS011;15006;48.584;9.186;2023-08-31T03:23:15;3.35;;;2.40;;
27566;SDS011;15006;48.584;9.186;2023-08-31T03:25:41;2.83;;;2.65;;
27566;SDS011;15006;48.584;9.186;2023-08-31T03:28:07;2.65;;;2.45;;
27566;SDS011;15006;48.584;9.186;2023-08-31T03:30:33;2.55;;;2.45;;
27566;SDS011;15006;48.584;9.186;2023-08-31T03:33:00;3.15;;;2.70;;
27566;SDS011;15006;48.584;9.186;2023-08-31T03:35:26;4.25;;;2.60;;
27566;SDS011;15006;48.584;9.186;2023-08-31T03:37:54;3.10;;;2.90;;
27566;SDS011;15006;48.584;9.186;2023-08-31T03:40:21;2.92;;;2.60;;
27566;SDS011;15006;48.584;9.186;2023-08-31T03:42:48;2.58;;;2.45;;
27566;SDS011;15006;48.584;9.186;2023-08-31T03:45:15;3.28;;;2.92;;
27566;SDS011;15006;48.584;9.186;2023-08-31T03:47:41;2.85;;;2.55;;
27566;SDS011;15006;48.584;9.186;2023-08-31T03:50:07;2.78;;;2.58;;
27566;SDS011;15006;48.584;9.186;2023-08-31T03:52:34;2.88;;;2.47;;
27566;SDS011;15006;48.584;9.186;2023-08-31T03:55:00;2.42;;;2.22;;
27566;SDS011;15006;48.584;9.186;2023-08-31T03:57:26;2.75;;;2.10;;
27566;SDS011;15006;48.584;9.186;2023-08-31T03:59:52;2.30;;;2.20;;
27566;SDS011;15006;48.584;9.186;2023-08-31T04:02:18;4.22;;;2.20;;
27566;SDS011;15006;48.584;9.186;2023-08-31T04:04:44;2.80;;;2.40;;
27566;SDS011;15006;48.584;9.186;2023-08-31T04:07:10;2.45;;;2.28;;
27566;SDS011;15006;48.584;9.186;2023-08-31T04:09:36;2.30;;;2.20;;
27566;SDS011;15006;48.584;9.186;2023-08-31T04:12:02;3.30;;;2.58;;
27566;SDS011;15006;48.584;9.186;2023-08-31T04:14:28;2.70;;;2.50;;
27566;SDS011;15006;48.584;9.186;2023-08-31T04:16:55;2.40;;;2.20;;
27566;SDS011;15006;48.584;9.186;2023-08-31T04:19:21;2.63;;;2.35;;
27566;SDS011;15006;48.584;9.186;2023-08-31T04:21:47;3.53;;;2.40;;
27566;SDS011;15006;48.584;9.186;2023-08-31T04:24:14;3.05;;;2.10;;
27566;SDS011;15006;48.584;9.186;2023-08-31T04:26:40;4.00;;;2.30;;
27566;SDS011;15006;48.584;9.186;2023-08-31T04:29:06;2.88;;;2.33;;
27566;SDS011;15006;48.584;9.186;2023-08-31T04:31:32;2.70;;;2.50;;
27566;SDS011;15006;48.584;9.186;2023-08-31T04:33:58;2.10;;;2.00;;
27566;SDS011;15006;48.584;9.186;2023-08-31T04:36:24;2.38;;;2.15;;
27566;SDS011;15006;48.584;9.186;2023-08-31T04:38:54;2.03;;;1.92;;
27566;SDS011;15006;48.584;9.186;2023-08-31T04:41:19;2.50;;;2.30;;
27566;SDS011;15006;48.584;9.186;2023-08-31T04:43:46;2.47;;;2.33;;
27566;SDS011;15006;48.584;9.186;2023-08-31T04:48:41;3.85;;;2.30;;
27566;SDS011;15006;48.584;9.186;2023-08-31T04:51:09;2.85;;;2.30;;
27566;SDS011;15006;48.584;9.186;2023-08-31T04:53:55;3.75;;;2.58;;
27566;SDS011;15006;48.584;9.186;2023-08-31T04:56:21;6.70;;;2.55;;
27566;SDS011;15006;48.584;9.186;2023-08-31T04:58:47;2.40;;;2.30;;
27566;SDS011;15006;48.584;9.186;2023-08-31T05:01:13;2.13;;;2.03;;
27566;SDS011;15006;48.584;9.186;2023-08-31T05:03:40;2.50;;;2.30;;
27566;SDS011;15006;48.584;9.186;2023-08-31T05:06:06;5.05;;;2.38;;
27566;SDS011;15006;48.584;9.186;2023-08-31T05:08:33;3.25;;;2.33;;
27566;SDS011;15006;48.584;9.186;2023-08-31T05:10:59;2.85;;;2.40;;
27566;SDS011;15006;48.584;9.186;2023-08-31T05:13:25;2.85;;;2.30;;
27566;SDS011;15006;48.584;9.186;2023-08-31T05:15:51;2.20;;;2.10;;
27566;SDS011;15006;48.584;9.186;2023-08-31T05:18:17;2.75;;;2.15;;
27566;SDS011;15006;48.584;9.186;2023-08-31T05:20:46;2.63;;;2.53;;
27566;SDS011;15006;48.584;9.186;2023-08-31T05:23:14;2.33;;;2.22;;
27566;SDS011;15006;48.584;9.186;2023-08-31T05:25:43;3.10;;;2.85;;
27566;SDS011;15006;48.584;9.186;2023-08-31T05:28:10;3.28;;;2.97;;
27566;SDS011;15006;48.584;9.186;2023-08-31T05:30:36;2.78;;;2.60;;
27566;SDS011;15006;48.584;9.186;2023-08-31T05:33:11;5.75;;;2.83;;
27566;SDS011;15006;48.584;9.186;2023-08-31T05:35:37;2.60;;;2.40;;
27566;SDS011;15006;48.584;9.186;2023-08-31T05:38:03;4.65;;;4.25;;
27566;SDS011;15006;48.584;9.186;2023-08-31T05:40:29;4.60;;;4.20;;
27566;SDS011;15006;48.584;9.186;2023-08-31T05:42:55;13.77;;;8.25;;
27566;SDS011;15006;48.584;9.186;2023-08-31T05:45:20;10.00;;;7.38;;
27566;SDS011;15006;48.584;9.186;2023-08-31T05:47:46;10.70;;;8.10;;
27566;SDS011;15006;48.584;9.186;2023-08-31T05:50:12;9.75;;;5.75;;
27566;SDS011;15006;48.584;9.186;2023-08-31T05:52:38;3.38;;;3.08;;
27566;SDS011;15006;48.584;9.186;2023-08-31T05:55:09;3.00;;;2.80;;
27566;SDS011;15006;48.584;9.186;2023-08-31T05:57:35;2.53;;;2.33;;
27566;SDS011;15006;48.584;9.186;2023-08-31T06:00:04;2.97;;;2.75;;
27566;SDS011;15006;48.584;9.186;2023-08-31T06:02:33;6.75;;;2.97;;
27566;SDS011;15006;48.584;9.186;2023-08-31T06:05:01;2.70;;;2.50;;
27566;SDS011;15006;48.584;9.186;2023-08-31T06:07:29;2.40;;;2.30;;
27566;SDS011;15006;48.584;9.186;2023-08-31T06:09:55;3.10;;;2.75;;
27566;SDS011;15006;48.584;9.186;2023-08-31T06:12:22;4.57;;;3.10;;
27566;SDS011;15006;48.584;9.186;2023-08-31T06:14:48;5.38;;;3.95;;
27566;SDS011;15006;48.584;9.186;2023-08-31T06:17:14;4.97;;;4.18;;
27566;SDS011;15006;48.584;9.186;2023-08-31T06:19:40;8.50;;;6.88;;
27566;SDS011;15006;48.584;9.186;2023-08-31T06:22:07;9.00;;;7.13;;
27566;SDS011;15006;48.584;9.186;2023-08-31T06:24:34;8.48;;;7.50;;
27566;SDS011;15006;48.584;9.186;2023-08-31T06:27:00;5.88;;;5.30;;
27566;SDS011;15006;48.584;9.186;2023-08-31T06:29:26;5.20;;;4.80;;
27566;SDS011;15006;48.584;9.186;2023-08-31T06:31:52;8.48;;;5.43;;
27566;SDS011;15006;48.584;9.186;2023-08-31T06:34:19;8.70;;;5.68;;
27566;SDS011;15006;48.584;9.186;2023-08-31T06:36:45;7.10;;;5.70;;
27566;SDS011;15006;48.584;9.186;2023-08-31T06:39:11;8.38;;;5.78;;
27566;SDS011;15006;48.584;9.186;2023-08-31T06:41:37;4.68;;;4.28;;
27566;SDS011;15006;48.584;9.186;2023-08-31T06:44:03;3.58;;;2.95;;
27566;SDS011;15006;48.584;9.186;2023-08-31T06:46:30;6.28;;;3.05;;
27566;SDS011;15006;48.584;9.186;2023-08-31T06:49:03;2.55;;;2.45;;
27566;SDS011;15006;48.584;9.186;2023-08-31T06:51:32;3.17;;;2.38;;
27566;SDS011;15006;48.584;9.186;2023-08-31T06:53:58;3.45;;;2.40;;
27566;SDS011;15006;48.584;9.186;2023-08-31T06:56:32;3.25;;;2.85;;
27566;SDS011;15006;48.584;9.186;2023-08-31T06:59:01;4.35;;;2.65;;
27566;SDS011;15006;48.584;9.186;2023-08-31T07:01:28;2.90;;;2.70;;
27566;SDS011;15006;48.584;9.186;2023-08-31T07:03:54;3.03;;;2.83;;
27566;SDS011;15006;48.584;9.186;2023-08-31T07:06:21;3.65;;;2.65;;
27566;SDS011;15006;48.584;9.186;2023-08-31T07:08:47;2.95;;;2.72;;
27566;SDS011;15006;48.584;9.186;2023-08-31T07:11:13;2.88;;;2.67;;
27566;SDS011;15006;48.584;9.186;2023-08-31T07:13:40;2.65;;;2.47;;
27566;SDS011;15006;48.584;9.186;2023-08-31T07:16:06;3.00;;;2.80;;
27566;SDS011;15006;48.584;9.186;2023-08-31T07:18:32;2.85;;;2.65;;
27566;SDS011;15006;48.584;9.186;2023-08-31T07:20:59;4.22;;;2.60;;
27566;SDS011;15006;48.584;9.186;2023-08-31T07:23:24;4.60;;;2.80;;
27566;SDS011;15006;48.584;9.186;2023-08-31T07:25:50;4.50;;;2.70;;
27566;SDS011;15006;48.584;9.186;2023-08-31T07:28:17;2.92;;;2.45;;
27566;SDS011;15006;48.584;9.186;2023-08-31T07:30:43;3.05;;;2.72;;
27566;SDS011;15006;48.584;9.186;2023-08-31T07:33:09;3.50;;;2.63;;
27566;SDS011;15006;48.584;9.186;2023-08-31T07:35:35;2.53;;;2.30;;
27566;SDS011;15006;48.584;9.186;2023-08-31T07:38:01;2.53;;;2.08;;
27566;SDS011;15006;48.584;9.186;2023-08-31T07:40:27;17.08;;;2.40;;
27566;SDS011;15006;48.584;9.186;2023-08-31T07:42:53;2.10;;;2.00;;
27566;SDS011;15006;48.584;9.186;2023-08-31T07:45:20;3.03;;;2.08;;
27566;SDS011;15006;48.584;9.186;2023-08-31T07:47:46;3.25;;;2.22;;
27566;SDS011;15006;48.584;9.186;2023-08-31T07:50:11;5.40;;;2.47;;
27566;SDS011;15006;48.584;9.186;2023-08-31T07:52:39;2.63;;;1.75;;
27566;SDS011;15006;48.584;9.186;2023-08-31T07:55:05;2.00;;;1.90;;
27566;SDS011;15006;48.584;9.186;2023-08-31T07:57:31;3.53;;;1.80;;
27566;SDS011;15006;48.584;9.186;2023-08-31T07:59:57;2.63;;;2.10;;
27566;SDS011;15006;48.584;9.186;2023-08-31T08:02:23;3.20;;;1.73;;
27566;SDS011;15006;48.584;9.186;2023-08-31T08:04:49;3.33;;;1.63;;
27566;SDS011;15006;48.584;9.186;2023-08-31T08:07:15;4.40;;;2.13;;
27566;SDS011;15006;48.584;9.186;2023-08-31T08:09:41;2.45;;;1.42;;
27566;SDS011;15006;48.584;9.186;2023-08-31T08:12:07;5.15;;;1.67;;
27566;SDS011;15006;48.584;9.186;2023-08-31T08:14:33;1.63;;;1.48;;
27566;SDS011;15006;48.584;9.186;2023-08-31T08:17:00;2.15;;;1.75;;
27566;SDS011;15006;48.584;9.186;2023-08-31T08:19:25;3.70;;;1.90;;
27566;SDS011;15006;48.584;9.186;2023-08-31T08:21:51;4.22;;;1.67;;
27566;SDS011;15006;48.584;9.186;2023-08-31T08:24:18;1.42;;;1.33;;
27566;SDS011;15006;48.584;9.186;2023-08-31T08:26:44;1.60;;;1.50;;
27566;SDS011;15006;48.584;9.186;2023-08-31T08:29:10;3.38;;;1.63;;
27566;SDS011;15006;48.584;9.186;2023-08-31T08:31:37;2.95;;;1.58;;
27566;SDS011;15006;48.584;9.186;2023-08-31T08:34:03;1.67;;;1.50;;
27566;SDS011;15006;48.584;9.186;2023-08-31T08:36:29;1.95;;;1.48;;
27566;SDS011;15006;48.584;9.186;2023-08-31T08:38:55;1.50;;;1.40;;
27566;SDS011;15006;48.584;9.186;2023-08-31T08:41:22;1.60;;;1.50;;
27566;SDS011;15006;48.584;9.186;2023-08-31T08:43:50;2.25;;;1.65;;
27566;SDS011;15006;48.584;9.186;2023-08-31T08:46:17;2.90;;;1.98;;
27566;SDS011;15006;48.584;9.186;2023-08-31T08:48:44;2.80;;;1.83;;
27566;SDS011;15006;48.584;9.186;2023-08-31T08:51:12;1.90;;;1.70;;
27566;SDS011;15006;48.584;9.186;2023-08-31T08:53:40;4.57;;;1.90;;
27566;SDS011;15006;48.584;9.186;2023-08-31T08:56:09;2.85;;;2.35;;
27566;SDS011;15006;48.584;9.186;2023-08-31T08:58:35;3.42;;;1.70;;
27566;SDS011;15006;48.584;9.186;2023-08-31T09:01:01;3.10;;;1.45;;
27566;SDS011;15006;48.584;9.186;2023-08-31T09:03:29;1.95;;;1.58;;
27566;SDS011;15006;48.584;9.186;2023-08-31T09:05:55;2.72;;;1.58;;
27566;SDS011;15006;48.584;9.186;2023-08-31T09:08:27;4.60;;;1.60;;
27566;SDS011;15006;48.584;9.186;2023-08-31T09:10:57;5.47;;;1.60;;
27566;SDS011;15006;48.584;9.186;2023-08-31T09:13:27;2.70;;;1.48;;
27566;SDS011;15006;48.584;9.186;2023-08-31T09:15:54;2.95;;;1.73;;
27566;SDS011;15006;48.584;9.186;2023-08-31T09:18:28;2.63;;;1.85;;
27566;SDS011;15006;48.584;9.186;2023-08-31T09:20:58;2.22;;;1.40;;
27566;SDS011;15006;48.584;9.186;2023-08-31T09:23:26;1.65;;;1.55;;
27566;SDS011;15006;48.584;9.186;2023-08-31T09:25:53;1.80;;;1.67;;
27566;SDS011;15006;48.584;9.186;2023-08-31T09:28:22;2.45;;;1.65;;
27566;SDS011;15006;48.584;9.186;2023-08-31T09:33:19;2.80;;;1.75;;
27566;SDS011;15006;48.584;9.186;2023-08-31T09:35:47;2.67;;;1.63;;
27566;SDS011;15006;48.584;9.186;2023-08-31T09:38:22;1.58;;;1.48;;
27566;SDS011;15006;48.584;9.186;2023-08-31T09:40:48;3.22;;;1.92;;
27566;SDS011;15006;48.584;9.186;2023-08-31T09:43:21;1.83;;;1.63;;
27566;SDS011;15006;48.584;9.186;2023-08-31T09:45:49;4.10;;;2.08;;
27566;SDS011;15006;48.584;9.186;2023-08-31T09:48:16;2.70;;;1.75;;
27566;SDS011;15006;48.584;9.186;2023-08-31T09:50:43;1.33;;;1.15;;
27566;SDS011;15006;48.584;9.186;2023-08-31T09:53:13;2.15;;;1.55;;
27566;SDS011;15006;48.584;9.186;2023-08-31T09:55:42;2.70;;;1.80;;
27566;SDS011;15006;48.584;9.186;2023-08-31T09:58:09;1.50;;;1.40;;
27566;SDS011;15006;48.584;9.186;2023-08-31T10:00:35;2.67;;;1.60;;
27566;SDS011;15006;48.584;9.186;2023-08-31T10:03:03;2.13;;;1.55;;
27566;SDS011;15006;48.584;9.186;2023-08-31T10:05:30;4.55;;;1.50;;
27566;SDS011;15006;48.584;9.186;2023-08-31T10:07:58;3.97;;;1.33;;
27566;SDS011;15006;48.584;9.186;2023-08-31T10:10:26;4.13;;;1.50;;
27566;SDS011;15006;48.584;9.186;2023-08-31T10:12:54;1.98;;;1.35;;
27566;SDS011;15006;48.584;9.186;2023-08-31T10:15:21;3.30;;;1.75;;
27566;SDS011;15006;48.584;9.186;2023-08-31T10:17:48;3.67;;;1.35;;
27566;SDS011;15006;48.584;9.186;2023-08-31T10:20:15;4.07;;;1.58;;
27566;SDS011;15006;48.584;9.186;2023-08-31T10:22:44;2.90;;;1.50;;
27566;SDS011;15006;48.584;9.186;2023-08-31T10:25:10;2.50;;;1.63;;
27566;SDS011;15006;48.584;9.186;2023-08-31T10:30:14;2.55;;;1.67;;
27566;SDS011;15006;48.584;9.186;2023-08-31T10:38:29;2.10;;;1.63;;
27566;SDS011;15006;48.584;9.186;2023-08-31T10:43:54;3.13;;;1.58;;
27566;SDS011;15006;48.584;9.186;2023-08-31T10:46:35;4.07;;;1.50;;
27566;SDS011;15006;48.584;9.186;2023-08-31T10:51:38;1.50;;;1.40;;
27566;SDS011;15006;48.584;9.186;2023-08-31T10:54:12;4.45;;;1.48;;
27566;SDS011;15006;48.584;9.186;2023-08-31T10:57:01;1.70;;;1.45;;
27566;SDS011;15006;48.584;9.186;2023-08-31T11:05:05;1.98;;;1.52;;
27566;SDS011;15006;48.584;9.186;2023-08-31T11:07:34;1.70;;;1.50;;
27566;SDS011;15006;48.584;9.186;2023-08-31T11:10:08;2.42;;;1.50;;
27566;SDS011;15006;48.584;9.186;2023-08-31T11:12:44;2.22;;;1.73;;
27566;SDS011;15006;48.584;9.186;2023-08-31T11:15:18;3.03;;;1.83;;
27566;SDS011;15006;48.584;9.186;2023-08-31T11:17:47;1.80;;;1.63;;
27566;SDS011;15006;48.584;9.186;2023-08-31T11:20:17;3.45;;;1.95;;
27566;SDS011;15006;48.584;9.186;2023-08-31T11:22:45;3.70;;;1.65;;
27566;SDS011;15006;48.584;9.186;2023-08-31T11:25:18;2.72;;;1.60;;
27566;SDS011;15006;48.584;9.186;2023-08-31T11:27:58;2.20;;;1.95;;
27566;SDS011;15006;48.584;9.186;2023-08-31T11:30:27;5.95;;;2.33;;
27566;SDS011;15006;48.584;9.186;2023-08-31T11:33:07;3.42;;;1.60;;
27566;SDS011;15006;48.584;9.186;2023-08-31T11:35:37;1.65;;;1.50;;
27566;SDS011;15006;48.584;9.186;2023-08-31T11:38:06;3.17;;;1.80;;
27566;SDS011;15006;48.584;9.186;2023-08-31T11:40:32;1.48;;;1.38;;
27566;SDS011;15006;48.584;9.186;2023-08-31T11:42:59;6.03;;;1.80;;
27566;SDS011;15006;48.584;9.186;2023-08-31T11:45:25;3.72;;;1.63;;
27566;SDS011;15006;48.584;9.186;2023-08-31T11:47:53;2.00;;;1.77;;
27566;SDS011;15006;48.584;9.186;2023-08-31T11:50:20;1.65;;;1.30;;
27566;SDS011;15006;48.584;9.186;2023-08-31T11:52:48;2.50;;;1.63;;
27566;SDS011;15006;48.584;9.186;2023-08-31T11:55:16;1.67;;;1.55;;
27566;SDS011;15006;48.584;9.186;2023-08-31T11:57:52;2.63;;;1.20;;
27566;SDS011;15006;48.584;9.186;2023-08-31T12:00:21;2.05;;;1.60;;
27566;SDS011;15006;48.584;9.186;2023-08-31T12:03:00;3.67;;;1.45;;
27566;SDS011;15006;48.584;9.186;2023-08-31T12:05:27;1.90;;;1.50;;
27566;SDS011;15006;48.584;9.186;2023-08-31T12:07:54;2.03;;;1.35;;
27566;SDS011;15006;48.584;9.186;2023-08-31T12:10:21;3.08;;;1.40;;
27566;SDS011;15006;48.584;9.186;2023-08-31T12:12:49;2.20;;;1.65;;
27566;SDS011;15006;48.584;9.186;2023-08-31T12:15:18;2.90;;;1.80;;
27566;SDS011;15006;48.584;9.186;2023-08-31T12:17:48;1.80;;;1.55;;
27566;SDS011;15006;48.584;9.186;2023-08-31T12:20:24;2.65;;;1.98;;
27566;SDS011;15006;48.584;9.186;2023-08-31T12:22:51;2.28;;;1.40;;
27566;SDS011;15006;48.584;9.186;2023-08-31T12:25:21;2.00;;;1.60;;
27566;SDS011;15006;48.584;9.186;2023-08-31T12:27:47;1.98;;;1.65;;
27566;SDS011;15006;48.584;9.186;2023-08-31T12:30:13;2.13;;;1.33;;
27566;SDS011;15006;48.584;9.186;2023-08-31T12:32:39;1.98;;;1.45;;
27566;SDS011;15006;48.584;9.186;2023-08-31T12:35:05;1.52;;;1.40;;
27566;SDS011;15006;48.584;9.186;2023-08-31T12:37:32;1.20;;;1.10;;
27566;SDS011;15006;48.584;9.186;2023-08-31T12:39:58;3.83;;;2.10;;
27566;SDS011;15006;48.584;9.186;2023-08-31T12:42:24;1.90;;;1.23;;
27566;SDS011;15006;48.584;9.186;2023-08-31T12:44:50;2.17;;;1.17;;
27566;SDS011;15006;48.584;9.186;2023-08-31T12:47:17;1.85;;;1.10;;
27566;SDS011;15006;48.584;9.186;2023-08-31T12:49:43;3.00;;;1.40;;
27566;SDS011;15006;48.584;9.186;2023-08-31T12:52:09;1.30;;;1.20;;
27566;SDS011;15006;48.584;9.186;2023-08-31T12:54:35;2.78;;;1.73;;
27566;SDS011;15006;48.584;9.186;2023-08-31T12:57:01;6.25;;;1.70;;
27566;SDS011;15006;48.584;9.186;2023-08-31T12:59:28;1.63;;;1.00;;
27566;SDS011;15006;48.584;9.186;2023-08-31T13:01:54;2.60;;;1.55;;
27566;SDS011;15006;48.584;9.186;2023-08-31T13:04:38;3.45;;;1.30;;
27566;SDS011;15006;48.584;9.186;2023-08-31T13:07:16;2.47;;;1.52;;
27566;SDS011;15006;48.584;9.186;2023-08-31T13:10:01;2.20;;;1.17;;
27566;SDS011;15006;48.584;9.186;2023-08-31T13:12:29;2.90;;;1.77;;
27566;SDS011;15006;48.584;9.186;2023-08-31T13:14:56;1.45;;;1.35;;
27566;SDS011;15006;48.584;9.186;2023-08-31T13:17:23;2.13;;;1.42;;
27566;SDS011;15006;48.584;9.186;2023-08-31T13:19:57;2.38;;;1.40;;
27566;SDS011;15006;48.584;9.186;2023-08-31T13:22:36;1.70;;;1.40;;
27566;SDS011;15006;48.584;9.186;2023-08-31T13:34:20;1.67;;;1.52;;
27566;SDS011;15006;48.584;9.186;2023-08-31T13:36:46;3.20;;;1.27;;
27566;SDS011;15006;48.584;9.186;2023-08-31T13:39:13;1.88;;;1.30;;
27566;SDS011;15006;48.584;9.186;2023-08-31T13:41:39;2.60;;;1.65;;
27566;SDS011;15006;48.584;9.186;2023-08-31T13:44:06;3.25;;;1.30;;
27566;SDS011;15006;48.584;9.186;2023-08-31T13:46:32;2.05;;;1.50;;
27566;SDS011;15006;48.584;9.186;2023-08-31T13:48:58;1.85;;;1.42;;
27566;SDS011;15006;48.584;9.186;2023-08-31T13:51:27;2.40;;;1.60;;
27566;SDS011;15006;48.584;9.186;2023-08-31T13:53:53;1.70;;;1.30;;
27566;SDS011;15006;48.584;9.186;2023-08-31T13:56:19;1.58;;;1.40;;
27566;SDS011;15006;48.584;9.186;2023-08-31T13:58:45;1.70;;;1.40;;
27566;SDS011;15006;48.584;9.186;2023-08-31T14:01:11;3.78;;;1.75;;
27566;SDS011;15006;48.584;9.186;2023-08-31T14:03:38;1.65;;;1.55;;
27566;SDS011;15006;48.584;9.186;2023-08-31T14:06:04;2.58;;;1.40;;
27566;SDS011;15006;48.584;9.186;2023-08-31T14:08:30;2.25;;;1.60;;
27566;SDS011;15006;48.584;9.186;2023-08-31T14:10:56;2.45;;;1.65;;
27566;SDS011;15006;48.584;9.186;2023-08-31T14:13:22;1.67;;;1.30;;
27566;SDS011;15006;48.584;9.186;2023-08-31T14:15:48;2.35;;;1.63;;
27566;SDS011;15006;48.584;9.186;2023-08-31T14:18:15;2.38;;;1.83;;
27566;SDS011;15006;48.584;9.186;2023-08-31T14:20:41;1.67;;;1.33;;
27566;SDS011;15006;48.584;9.186;2023-08-31T14:23:08;1.90;;;1.50;;
27566;SDS011;15006;48.584;9.186;2023-08-31T14:25:37;4.00;;;1.77;;
27566;SDS011;15006;48.584;9.186;2023-08-31T14:28:04;3.25;;;1.90;;
27566;SDS011;15006;48.584;9.186;2023-08-31T14:30:30;2.13;;;1.48;;
27566;SDS011;15006;48.584;9.186;2023-08-31T14:32:57;4.68;;;2.35;;
27566;SDS011;15006;48.584;9.186;2023-08-31T14:35:23;7.85;;;2.10;;
27566;SDS011;15006;48.584;9.186;2023-08-31T14:37:49;3.33;;;1.90;;
27566;SDS011;15006;48.584;9.186;2023-08-31T14:40:15;1.95;;;1.75;;
27566;SDS011;15006;48.584;9.186;2023-08-31T14:42:41;2.75;;;1.65;;
27566;SDS011;15006;48.584;9.186;2023-08-31T14:45:07;3.53;;;1.80;;
27566;SDS011;15006;48.584;9.186;2023-08-31T14:47:34;5.05;;;1.58;;
27566;SDS011;15006;48.584;9.186;2023-08-31T14:50:00;2.38;;;1.52;;
27566;SDS011;15006;48.584;9.186;2023-08-31T14:52:26;2.15;;;1.65;;
27566;SDS011;15006;48.584;9.186;2023-08-31T14:54:53;2.13;;;1.35;;
27566;SDS011;15006;48.584;9.186;2023-08-31T14:57:19;3.45;;;1.70;;
27566;SDS011;15006;48.584;9.186;2023-08-31T14:59:45;2.88;;;1.73;;
27566;SDS011;15006;48.584;9.186;2023-08-31T15:02:11;3.85;;;1.80;;
27566;SDS011;15006;48.584;9.186;2023-08-31T15:04:39;3.03;;;2.10;;
27566;SDS011;15006;48.584;9.186;2023-08-31T15:07:05;1.70;;;1.60;;
27566;SDS011;15006;48.584;9.186;2023-08-31T15:09:31;2.05;;;1.42;;
27566;SDS011;15006;48.584;9.186;2023-08-31T15:11:57;2.20;;;1.52;;
27566;SDS011;15006;48.584;9.186;2023-08-31T15:14:23;2.42;;;1.70;;
27566;SDS011;15006;48.584;9.186;2023-08-31T15:16:49;2.95;;;1.75;;
27566;SDS011;15006;48.584;9.186;2023-08-31T15:19:16;3.85;;;1.40;;
27566;SDS011;15006;48.584;9.186;2023-08-31T15:21:42;3.13;;;1.77;;
27566;SDS011;15006;48.584;9.186;2023-08-31T15:24:08;2.40;;;1.35;;
27566;SDS011;15006;48.584;9.186;2023-08-31T15:26:34;3.97;;;1.70;;
27566;SDS011;15006;48.584;9.186;2023-08-31T15:29:01;2.60;;;1.40;;
27566;SDS011;15006;48.584;9.186;2023-08-31T15:31:32;3.47;;;1.80;;